sensor_id;sensor_type;location;lat;lon;timestamp;P1;durP1;ratioP1;P2;durP2;ratioP2
75379;SDS011;64279;44.714;37.756;2022-11-24T00:00:40;4.55;;;2.60;;
75379;SDS011;64279;44.714;37.756;2022-11-24T00:01:42;3.28;;;2.00;;
75379;SDS011;64279;44.714;37.756;2022-11-24T00:02:45;3.42;;;2.55;;
75379;SDS011;64279;44.714;37.756;2022-11-24T00:03:52;3.42;;;2.40;;
75379;SDS011;64279;44.714;37.756;2022-11-24T00:04:56;3.67;;;2.83;;
75379;SDS011;64279;44.714;37.756;2022-11-24T00:06:02;3.63;;;2.25;;
75379;SDS011;64279;44.714;37.756;2022-11-24T00:07:07;3.63;;;2.88;;
75379;SDS011;64279;44.714;37.756;2022-11-24T00:08:09;4.57;;;2.63;;
75379;SDS011;64279;44.714;37.756;2022-11-24T00:09:13;3.55;;;2.35;;
75379;SDS011;64279;44.714;37.756;2022-11-24T00:10:15;3.47;;;2.35;;
75379;SDS011;64279;44.714;37.756;2022-11-24T00:11:21;4.00;;;2.50;;
75379;SDS011;64279;44.714;37.756;2022-11-24T00:12:26;3.97;;;3.58;;
75379;SDS011;64279;44.714;37.756;2022-11-24T00:13:28;3.38;;;2.22;;
75379;SDS011;64279;44.714;37.756;2022-11-24T00:14:31;4.00;;;2.38;;
75379;SDS011;64279;44.714;37.756;2022-11-24T00:15:36;3.85;;;2.50;;
75379;SDS011;64279;44.714;37.756;2022-11-24T00:16:39;3.33;;;2.35;;
75379;SDS011;64279;44.714;37.756;2022-11-24T00:17:42;4.72;;;2.40;;
75379;SDS011;64279;44.714;37.756;2022-11-24T00:18:45;3.60;;;2.15;;
75379;SDS011;64279;44.714;37.756;2022-11-24T00:19:48;3.05;;;2.50;;
75379;SDS011;64279;44.714;37.756;2022-11-24T00:20:51;4.13;;;2.53;;
75379;SDS011;64279;44.714;37.756;2022-11-24T00:21:54;3.20;;;2.30;;
75379;SDS011;64279;44.714;37.756;2022-11-24T00:22:57;3.70;;;2.22;;
75379;SDS011;64279;44.714;37.756;2022-11-24T00:23:59;3.00;;;2.30;;
75379;SDS011;64279;44.714;37.756;2022-11-24T00:25:02;3.08;;;2.25;;
75379;SDS011;64279;44.714;37.756;2022-11-24T00:26:09;3.60;;;2.28;;
75379;SDS011;64279;44.714;37.756;2022-11-24T00:27:22;2.80;;;1.98;;
75379;SDS011;64279;44.714;37.756;2022-11-24T00:28:31;3.45;;;2.30;;
75379;SDS011;64279;44.714;37.756;2022-11-24T00:29:40;3.53;;;2.20;;
75379;SDS011;64279;44.714;37.756;2022-11-24T00:30:42;3.13;;;2.25;;
75379;SDS011;64279;44.714;37.756;2022-11-24T00:31:45;3.25;;;2.28;;
75379;SDS011;64279;44.714;37.756;2022-11-24T00:32:48;3.80;;;2.15;;
75379;SDS011;64279;44.714;37.756;2022-11-24T00:33:52;2.97;;;2.33;;
75379;SDS011;64279;44.714;37.756;2022-11-24T00:34:56;3.72;;;2.60;;
75379;SDS011;64279;44.714;37.756;2022-11-24T00:35:59;4.22;;;2.72;;
75379;SDS011;64279;44.714;37.756;2022-11-24T00:37:01;3.53;;;2.42;;
75379;SDS011;64279;44.714;37.756;2022-11-24T00:38:04;3.35;;;2.20;;
75379;SDS011;64279;44.714;37.756;2022-11-24T00:39:09;3.63;;;2.20;;
75379;SDS011;64279;44.714;37.756;2022-11-24T00:40:16;3.92;;;2.53;;
75379;SDS011;64279;44.714;37.756;2022-11-24T00:41:20;3.65;;;2.50;;
75379;SDS011;64279;44.714;37.756;2022-11-24T00:42:23;4.07;;;2.58;;
75379;SDS011;64279;44.714;37.756;2022-11-24T00:43:25;4.28;;;2.25;;
75379;SDS011;64279;44.714;37.756;2022-11-24T00:44:28;3.33;;;2.20;;
75379;SDS011;64279;44.714;37.756;2022-11-24T00:45:31;3.13;;;2.15;;
75379;SDS011;64279;44.714;37.756;2022-11-24T00:46:34;3.05;;;2.25;;
75379;SDS011;64279;44.714;37.756;2022-11-24T00:47:37;3.60;;;2.25;;
75379;SDS011;64279;44.714;37.756;2022-11-24T00:48:39;2.60;;;1.90;;
75379;SDS011;64279;44.714;37.756;2022-11-24T00:49:42;4.28;;;2.58;;
75379;SDS011;64279;44.714;37.756;2022-11-24T00:50:53;3.40;;;2.60;;
75379;SDS011;64279;44.714;37.756;2022-11-24T00:52:00;3.13;;;2.20;;
75379;SDS011;64279;44.714;37.756;2022-11-24T00:53:02;4.03;;;1.90;;
75379;SDS011;64279;44.714;37.756;2022-11-24T00:54:05;3.35;;;2.22;;
75379;SDS011;64279;44.714;37.756;2022-11-24T00:55:07;2.88;;;2.53;;
75379;SDS011;64279;44.714;37.756;2022-11-24T00:56:10;3.20;;;2.05;;
75379;SDS011;64279;44.714;37.756;2022-11-24T00:57:13;3.35;;;2.63;;
75379;SDS011;64279;44.714;37.756;2022-11-24T00:58:16;3.50;;;2.55;;
75379;SDS011;64279;44.714;37.756;2022-11-24T00:59:19;3.08;;;2.15;;
75379;SDS011;64279;44.714;37.756;2022-11-24T01:00:21;4.40;;;2.50;;
75379;SDS011;64279;44.714;37.756;2022-11-24T01:01:25;3.58;;;2.55;;
75379;SDS011;64279;44.714;37.756;2022-11-24T01:02:29;3.10;;;2.42;;
75379;SDS011;64279;44.714;37.756;2022-11-24T01:03:32;4.65;;;2.30;;
75379;SDS011;64279;44.714;37.756;2022-11-24T01:04:35;3.30;;;2.47;;
75379;SDS011;64279;44.714;37.756;2022-11-24T01:05:38;5.45;;;2.53;;
75379;SDS011;64279;44.714;37.756;2022-11-24T01:06:41;2.97;;;2.38;;
75379;SDS011;64279;44.714;37.756;2022-11-24T01:07:43;3.25;;;2.20;;
75379;SDS011;64279;44.714;37.756;2022-11-24T01:08:46;4.55;;;2.72;;
75379;SDS011;64279;44.714;37.756;2022-11-24T01:09:49;3.17;;;2.00;;
75379;SDS011;64279;44.714;37.756;2022-11-24T01:10:52;3.25;;;2.40;;
75379;SDS011;64279;44.714;37.756;2022-11-24T01:11:55;3.97;;;2.55;;
75379;SDS011;64279;44.714;37.756;2022-11-24T01:13:03;3.53;;;2.30;;
75379;SDS011;64279;44.714;37.756;2022-11-24T01:14:06;3.88;;;2.42;;
75379;SDS011;64279;44.714;37.756;2022-11-24T01:15:09;3.33;;;2.33;;
75379;SDS011;64279;44.714;37.756;2022-11-24T01:16:15;4.10;;;2.38;;
75379;SDS011;64279;44.714;37.756;2022-11-24T01:17:21;3.63;;;2.30;;
75379;SDS011;64279;44.714;37.756;2022-11-24T01:18:24;3.83;;;2.40;;
75379;SDS011;64279;44.714;37.756;2022-11-24T01:19:26;3.40;;;2.33;;
75379;SDS011;64279;44.714;37.756;2022-11-24T01:20:29;3.33;;;2.67;;
75379;SDS011;64279;44.714;37.756;2022-11-24T01:21:33;3.10;;;2.47;;
75379;SDS011;64279;44.714;37.756;2022-11-24T01:22:35;2.63;;;2.00;;
75379;SDS011;64279;44.714;37.756;2022-11-24T01:23:40;3.47;;;2.47;;
75379;SDS011;64279;44.714;37.756;2022-11-24T01:24:42;2.90;;;1.95;;
75379;SDS011;64279;44.714;37.756;2022-11-24T01:25:46;4.28;;;2.50;;
75379;SDS011;64279;44.714;37.756;2022-11-24T01:26:49;3.72;;;2.50;;
75379;SDS011;64279;44.714;37.756;2022-11-24T01:27:51;3.65;;;2.35;;
75379;SDS011;64279;44.714;37.756;2022-11-24T01:28:55;3.45;;;2.42;;
75379;SDS011;64279;44.714;37.756;2022-11-24T01:29:58;3.75;;;2.35;;
75379;SDS011;64279;44.714;37.756;2022-11-24T01:31:02;3.10;;;2.13;;
75379;SDS011;64279;44.714;37.756;2022-11-24T01:32:06;3.08;;;2.20;;
75379;SDS011;64279;44.714;37.756;2022-11-24T01:33:09;3.05;;;2.35;;
75379;SDS011;64279;44.714;37.756;2022-11-24T01:34:11;3.90;;;2.42;;
75379;SDS011;64279;44.714;37.756;2022-11-24T01:35:14;3.63;;;2.28;;
75379;SDS011;64279;44.714;37.756;2022-11-24T01:36:17;4.07;;;2.47;;
75379;SDS011;64279;44.714;37.756;2022-11-24T01:37:20;2.58;;;1.92;;
75379;SDS011;64279;44.714;37.756;2022-11-24T01:38:23;4.03;;;2.70;;
75379;SDS011;64279;44.714;37.756;2022-11-24T01:39:26;3.83;;;2.53;;
75379;SDS011;64279;44.714;37.756;2022-11-24T01:40:29;3.80;;;2.50;;
75379;SDS011;64279;44.714;37.756;2022-11-24T01:41:32;3.90;;;2.53;;
75379;SDS011;64279;44.714;37.756;2022-11-24T01:42:38;3.38;;;2.30;;
75379;SDS011;64279;44.714;37.756;2022-11-24T01:43:48;3.63;;;2.67;;
75379;SDS011;64279;44.714;37.756;2022-11-24T01:45:25;2.67;;;2.20;;
75379;SDS011;64279;44.714;37.756;2022-11-24T01:46:42;5.10;;;2.85;;
75379;SDS011;64279;44.714;37.756;2022-11-24T01:47:46;2.92;;;2.08;;
75379;SDS011;64279;44.714;37.756;2022-11-24T01:49:10;3.30;;;2.50;;
75379;SDS011;64279;44.714;37.756;2022-11-24T01:50:15;3.83;;;2.40;;
75379;SDS011;64279;44.714;37.756;2022-11-24T01:51:21;3.40;;;2.65;;
75379;SDS011;64279;44.714;37.756;2022-11-24T01:52:31;3.35;;;2.42;;
75379;SDS011;64279;44.714;37.756;2022-11-24T01:53:39;3.10;;;2.40;;
75379;SDS011;64279;44.714;37.756;2022-11-24T01:54:45;3.58;;;2.63;;
75379;SDS011;64279;44.714;37.756;2022-11-24T01:55:52;4.57;;;2.58;;
75379;SDS011;64279;44.714;37.756;2022-11-24T01:56:59;2.78;;;2.20;;
75379;SDS011;64279;44.714;37.756;2022-11-24T01:58:12;3.55;;;2.40;;
75379;SDS011;64279;44.714;37.756;2022-11-24T01:59:18;3.88;;;2.28;;
75379;SDS011;64279;44.714;37.756;2022-11-24T02:00:22;3.60;;;3.30;;
75379;SDS011;64279;44.714;37.756;2022-11-24T02:01:35;3.47;;;2.20;;
75379;SDS011;64279;44.714;37.756;2022-11-24T02:02:38;3.38;;;2.67;;
75379;SDS011;64279;44.714;37.756;2022-11-24T02:03:43;3.33;;;2.08;;
75379;SDS011;64279;44.714;37.756;2022-11-24T02:04:48;4.15;;;3.15;;
75379;SDS011;64279;44.714;37.756;2022-11-24T02:07:14;4.72;;;2.10;;
75379;SDS011;64279;44.714;37.756;2022-11-24T02:08:21;3.30;;;2.33;;
75379;SDS011;64279;44.714;37.756;2022-11-24T02:10:54;3.78;;;2.50;;
75379;SDS011;64279;44.714;37.756;2022-11-24T02:11:57;4.15;;;2.65;;
75379;SDS011;64279;44.714;37.756;2022-11-24T02:13:01;3.70;;;2.65;;
75379;SDS011;64279;44.714;37.756;2022-11-24T02:14:06;4.15;;;2.50;;
75379;SDS011;64279;44.714;37.756;2022-11-24T02:15:10;3.50;;;2.15;;
75379;SDS011;64279;44.714;37.756;2022-11-24T02:16:17;3.40;;;2.00;;
75379;SDS011;64279;44.714;37.756;2022-11-24T02:17:20;4.35;;;2.67;;
75379;SDS011;64279;44.714;37.756;2022-11-24T02:18:23;3.78;;;2.40;;
75379;SDS011;64279;44.714;37.756;2022-11-24T02:20:40;2.80;;;2.10;;
75379;SDS011;64279;44.714;37.756;2022-11-24T02:21:43;4.25;;;2.67;;
75379;SDS011;64279;44.714;37.756;2022-11-24T02:22:56;4.22;;;2.70;;
75379;SDS011;64279;44.714;37.756;2022-11-24T02:24:12;3.78;;;2.33;;
75379;SDS011;64279;44.714;37.756;2022-11-24T02:27:43;2.50;;;1.70;;
75379;SDS011;64279;44.714;37.756;2022-11-24T02:28:53;3.42;;;2.55;;
75379;SDS011;64279;44.714;37.756;2022-11-24T02:29:55;3.90;;;2.50;;
75379;SDS011;64279;44.714;37.756;2022-11-24T02:30:58;3.10;;;2.40;;
75379;SDS011;64279;44.714;37.756;2022-11-24T02:32:02;3.80;;;2.22;;
75379;SDS011;64279;44.714;37.756;2022-11-24T02:33:09;3.58;;;2.58;;
75379;SDS011;64279;44.714;37.756;2022-11-24T02:34:13;4.90;;;2.70;;
75379;SDS011;64279;44.714;37.756;2022-11-24T02:35:16;3.60;;;2.50;;
75379;SDS011;64279;44.714;37.756;2022-11-24T02:36:18;3.65;;;2.38;;
75379;SDS011;64279;44.714;37.756;2022-11-24T02:37:21;3.95;;;2.88;;
75379;SDS011;64279;44.714;37.756;2022-11-24T02:38:27;4.32;;;2.53;;
75379;SDS011;64279;44.714;37.756;2022-11-24T02:39:34;3.30;;;2.42;;
75379;SDS011;64279;44.714;37.756;2022-11-24T02:40:36;3.03;;;2.20;;
75379;SDS011;64279;44.714;37.756;2022-11-24T02:41:41;3.38;;;2.45;;
75379;SDS011;64279;44.714;37.756;2022-11-24T02:42:47;3.78;;;2.50;;
75379;SDS011;64279;44.714;37.756;2022-11-24T02:43:59;3.55;;;2.50;;
75379;SDS011;64279;44.714;37.756;2022-11-24T02:45:03;3.67;;;2.60;;
75379;SDS011;64279;44.714;37.756;2022-11-24T02:46:06;3.22;;;2.25;;
75379;SDS011;64279;44.714;37.756;2022-11-24T02:47:10;3.35;;;2.50;;
75379;SDS011;64279;44.714;37.756;2022-11-24T02:48:14;3.22;;;2.30;;
75379;SDS011;64279;44.714;37.756;2022-11-24T02:49:16;3.03;;;2.40;;
75379;SDS011;64279;44.714;37.756;2022-11-24T02:50:19;3.00;;;2.10;;
75379;SDS011;64279;44.714;37.756;2022-11-24T02:51:22;3.55;;;3.25;;
75379;SDS011;64279;44.714;37.756;2022-11-24T02:52:24;3.90;;;2.58;;
75379;SDS011;64279;44.714;37.756;2022-11-24T02:53:27;3.97;;;2.78;;
75379;SDS011;64279;44.714;37.756;2022-11-24T02:54:29;3.63;;;2.47;;
75379;SDS011;64279;44.714;37.756;2022-11-24T02:55:33;3.70;;;2.40;;
75379;SDS011;64279;44.714;37.756;2022-11-24T02:56:35;3.13;;;2.17;;
75379;SDS011;64279;44.714;37.756;2022-11-24T02:57:38;4.10;;;2.65;;
75379;SDS011;64279;44.714;37.756;2022-11-24T02:58:41;3.25;;;2.38;;
75379;SDS011;64279;44.714;37.756;2022-11-24T02:59:43;4.20;;;2.33;;
75379;SDS011;64279;44.714;37.756;2022-11-24T03:00:47;3.67;;;2.65;;
75379;SDS011;64279;44.714;37.756;2022-11-24T03:01:50;4.70;;;2.65;;
75379;SDS011;64279;44.714;37.756;2022-11-24T03:02:52;4.43;;;2.50;;
75379;SDS011;64279;44.714;37.756;2022-11-24T03:03:55;5.05;;;2.65;;
75379;SDS011;64279;44.714;37.756;2022-11-24T03:04:58;4.22;;;2.95;;
75379;SDS011;64279;44.714;37.756;2022-11-24T03:06:00;3.78;;;2.40;;
75379;SDS011;64279;44.714;37.756;2022-11-24T03:07:03;3.22;;;2.22;;
75379;SDS011;64279;44.714;37.756;2022-11-24T03:08:06;4.22;;;2.58;;
75379;SDS011;64279;44.714;37.756;2022-11-24T03:09:08;2.95;;;2.10;;
75379;SDS011;64279;44.714;37.756;2022-11-24T03:10:12;3.70;;;2.47;;
75379;SDS011;64279;44.714;37.756;2022-11-24T03:11:15;6.07;;;2.65;;
75379;SDS011;64279;44.714;37.756;2022-11-24T03:12:17;2.50;;;2.00;;
75379;SDS011;64279;44.714;37.756;2022-11-24T03:13:20;4.43;;;2.53;;
75379;SDS011;64279;44.714;37.756;2022-11-24T03:14:22;3.28;;;2.05;;
75379;SDS011;64279;44.714;37.756;2022-11-24T03:15:25;3.55;;;2.25;;
75379;SDS011;64279;44.714;37.756;2022-11-24T03:16:28;3.58;;;2.58;;
75379;SDS011;64279;44.714;37.756;2022-11-24T03:17:30;3.17;;;2.60;;
75379;SDS011;64279;44.714;37.756;2022-11-24T03:18:33;3.67;;;2.58;;
75379;SDS011;64279;44.714;37.756;2022-11-24T03:19:35;4.40;;;2.65;;
75379;SDS011;64279;44.714;37.756;2022-11-24T03:20:38;3.90;;;2.42;;
75379;SDS011;64279;44.714;37.756;2022-11-24T03:21:41;3.17;;;2.33;;
75379;SDS011;64279;44.714;37.756;2022-11-24T03:22:43;4.18;;;2.20;;
75379;SDS011;64279;44.714;37.756;2022-11-24T03:23:46;3.88;;;2.38;;
75379;SDS011;64279;44.714;37.756;2022-11-24T03:24:48;3.42;;;2.28;;
75379;SDS011;64279;44.714;37.756;2022-11-24T03:25:51;3.17;;;2.50;;
75379;SDS011;64279;44.714;37.756;2022-11-24T03:26:53;3.85;;;2.17;;
75379;SDS011;64279;44.714;37.756;2022-11-24T03:27:56;4.00;;;2.35;;
75379;SDS011;64279;44.714;37.756;2022-11-24T03:28:59;3.72;;;2.17;;
75379;SDS011;64279;44.714;37.756;2022-11-24T03:30:02;3.65;;;2.47;;
75379;SDS011;64279;44.714;37.756;2022-11-24T03:31:05;3.38;;;2.42;;
75379;SDS011;64279;44.714;37.756;2022-11-24T03:32:09;3.72;;;2.28;;
75379;SDS011;64279;44.714;37.756;2022-11-24T03:33:11;3.53;;;2.50;;
75379;SDS011;64279;44.714;37.756;2022-11-24T03:34:17;4.40;;;2.40;;
75379;SDS011;64279;44.714;37.756;2022-11-24T03:35:29;3.95;;;2.78;;
75379;SDS011;64279;44.714;37.756;2022-11-24T03:36:31;3.72;;;2.35;;
75379;SDS011;64279;44.714;37.756;2022-11-24T03:37:34;3.53;;;2.45;;
75379;SDS011;64279;44.714;37.756;2022-11-24T03:38:36;3.58;;;2.58;;
75379;SDS011;64279;44.714;37.756;2022-11-24T03:39:39;3.88;;;2.65;;
75379;SDS011;64279;44.714;37.756;2022-11-24T03:40:42;4.60;;;2.78;;
75379;SDS011;64279;44.714;37.756;2022-11-24T03:41:44;3.30;;;2.60;;
75379;SDS011;64279;44.714;37.756;2022-11-24T03:42:47;4.20;;;2.70;;
75379;SDS011;64279;44.714;37.756;2022-11-24T03:43:50;2.90;;;2.30;;
75379;SDS011;64279;44.714;37.756;2022-11-24T03:44:52;3.25;;;2.28;;
75379;SDS011;64279;44.714;37.756;2022-11-24T03:45:55;3.08;;;2.33;;
75379;SDS011;64279;44.714;37.756;2022-11-24T03:46:58;3.25;;;2.33;;
75379;SDS011;64279;44.714;37.756;2022-11-24T03:48:00;2.92;;;2.25;;
75379;SDS011;64279;44.714;37.756;2022-11-24T03:49:03;3.40;;;2.88;;
75379;SDS011;64279;44.714;37.756;2022-11-24T03:50:06;4.25;;;2.70;;
75379;SDS011;64279;44.714;37.756;2022-11-24T03:51:09;3.67;;;2.53;;
75379;SDS011;64279;44.714;37.756;2022-11-24T03:52:11;3.13;;;2.10;;
75379;SDS011;64279;44.714;37.756;2022-11-24T03:53:14;3.92;;;2.50;;
75379;SDS011;64279;44.714;37.756;2022-11-24T03:54:16;3.83;;;2.40;;
75379;SDS011;64279;44.714;37.756;2022-11-24T03:55:19;3.50;;;2.35;;
75379;SDS011;64279;44.714;37.756;2022-11-24T03:56:21;2.97;;;2.10;;
75379;SDS011;64279;44.714;37.756;2022-11-24T03:57:24;4.32;;;2.80;;
75379;SDS011;64279;44.714;37.756;2022-11-24T03:58:27;2.92;;;2.30;;
75379;SDS011;64279;44.714;37.756;2022-11-24T03:59:30;3.65;;;2.55;;
75379;SDS011;64279;44.714;37.756;2022-11-24T04:00:32;3.20;;;2.25;;
75379;SDS011;64279;44.714;37.756;2022-11-24T04:01:35;3.33;;;2.28;;
75379;SDS011;64279;44.714;37.756;2022-11-24T04:02:38;2.72;;;2.22;;
75379;SDS011;64279;44.714;37.756;2022-11-24T04:03:40;3.97;;;2.42;;
75379;SDS011;64279;44.714;37.756;2022-11-24T04:04:43;4.53;;;2.40;;
75379;SDS011;64279;44.714;37.756;2022-11-24T04:05:51;3.47;;;2.45;;
75379;SDS011;64279;44.714;37.756;2022-11-24T04:06:54;3.72;;;2.90;;
75379;SDS011;64279;44.714;37.756;2022-11-24T04:07:56;4.75;;;2.88;;
75379;SDS011;64279;44.714;37.756;2022-11-24T04:08:59;3.55;;;2.33;;
75379;SDS011;64279;44.714;37.756;2022-11-24T04:10:02;4.05;;;2.30;;
75379;SDS011;64279;44.714;37.756;2022-11-24T04:11:04;5.40;;;2.70;;
75379;SDS011;64279;44.714;37.756;2022-11-24T04:12:08;4.55;;;2.47;;
75379;SDS011;64279;44.714;37.756;2022-11-24T04:13:29;5.13;;;2.47;;
75379;SDS011;64279;44.714;37.756;2022-11-24T04:14:32;4.80;;;3.17;;
75379;SDS011;64279;44.714;37.756;2022-11-24T04:15:36;3.78;;;2.40;;
75379;SDS011;64279;44.714;37.756;2022-11-24T04:16:40;6.30;;;2.88;;
75379;SDS011;64279;44.714;37.756;2022-11-24T04:17:43;6.30;;;2.75;;
75379;SDS011;64279;44.714;37.756;2022-11-24T04:18:47;4.80;;;2.85;;
75379;SDS011;64279;44.714;37.756;2022-11-24T04:19:49;4.38;;;2.63;;
75379;SDS011;64279;44.714;37.756;2022-11-24T04:20:54;4.40;;;3.05;;
75379;SDS011;64279;44.714;37.756;2022-11-24T04:22:02;5.78;;;2.80;;
75379;SDS011;64279;44.714;37.756;2022-11-24T04:23:05;4.65;;;2.40;;
75379;SDS011;64279;44.714;37.756;2022-11-24T04:24:08;5.32;;;2.92;;
75379;SDS011;64279;44.714;37.756;2022-11-24T04:25:10;4.63;;;2.58;;
75379;SDS011;64279;44.714;37.756;2022-11-24T04:26:13;4.88;;;2.85;;
75379;SDS011;64279;44.714;37.756;2022-11-24T04:27:16;4.75;;;2.95;;
75379;SDS011;64279;44.714;37.756;2022-11-24T04:28:18;6.25;;;2.60;;
75379;SDS011;64279;44.714;37.756;2022-11-24T04:29:21;5.35;;;2.50;;
75379;SDS011;64279;44.714;37.756;2022-11-24T04:30:25;3.55;;;2.28;;
75379;SDS011;64279;44.714;37.756;2022-11-24T04:31:30;5.07;;;2.97;;
75379;SDS011;64279;44.714;37.756;2022-11-24T04:32:32;5.03;;;2.70;;
75379;SDS011;64279;44.714;37.756;2022-11-24T04:33:35;4.43;;;2.65;;
75379;SDS011;64279;44.714;37.756;2022-11-24T04:34:38;4.95;;;2.65;;
75379;SDS011;64279;44.714;37.756;2022-11-24T04:35:40;4.88;;;2.70;;
75379;SDS011;64279;44.714;37.756;2022-11-24T04:36:43;6.20;;;3.78;;
75379;SDS011;64279;44.714;37.756;2022-11-24T04:37:46;4.85;;;2.90;;
75379;SDS011;64279;44.714;37.756;2022-11-24T04:38:51;4.78;;;3.00;;
75379;SDS011;64279;44.714;37.756;2022-11-24T04:40:15;4.10;;;2.78;;
75379;SDS011;64279;44.714;37.756;2022-11-24T04:41:18;6.20;;;3.03;;
75379;SDS011;64279;44.714;37.756;2022-11-24T04:42:21;5.57;;;2.63;;
75379;SDS011;64279;44.714;37.756;2022-11-24T04:43:23;4.88;;;2.47;;
75379;SDS011;64279;44.714;37.756;2022-11-24T04:44:26;4.93;;;2.50;;
75379;SDS011;64279;44.714;37.756;2022-11-24T04:45:29;5.03;;;3.10;;
75379;SDS011;64279;44.714;37.756;2022-11-24T04:46:31;5.53;;;2.72;;
75379;SDS011;64279;44.714;37.756;2022-11-24T04:47:34;5.18;;;2.67;;
75379;SDS011;64279;44.714;37.756;2022-11-24T04:48:37;6.35;;;3.15;;
75379;SDS011;64279;44.714;37.756;2022-11-24T04:49:39;4.47;;;2.67;;
75379;SDS011;64279;44.714;37.756;2022-11-24T04:50:42;4.85;;;2.60;;
75379;SDS011;64279;44.714;37.756;2022-11-24T04:51:45;4.07;;;3.08;;
75379;SDS011;64279;44.714;37.756;2022-11-24T04:52:48;5.85;;;2.95;;
75379;SDS011;64279;44.714;37.756;2022-11-24T04:53:50;5.35;;;2.70;;
75379;SDS011;64279;44.714;37.756;2022-11-24T04:54:53;5.25;;;2.88;;
75379;SDS011;64279;44.714;37.756;2022-11-24T04:55:56;5.22;;;3.13;;
75379;SDS011;64279;44.714;37.756;2022-11-24T04:56:58;7.60;;;3.05;;
75379;SDS011;64279;44.714;37.756;2022-11-24T04:58:01;6.05;;;3.08;;
75379;SDS011;64279;44.714;37.756;2022-11-24T04:59:03;5.45;;;2.90;;
75379;SDS011;64279;44.714;37.756;2022-11-24T05:00:09;5.28;;;2.80;;
75379;SDS011;64279;44.714;37.756;2022-11-24T05:01:12;8.07;;;4.07;;
75379;SDS011;64279;44.714;37.756;2022-11-24T05:02:15;4.93;;;3.05;;
75379;SDS011;64279;44.714;37.756;2022-11-24T05:03:18;7.07;;;2.60;;
75379;SDS011;64279;44.714;37.756;2022-11-24T05:04:20;5.40;;;2.88;;
75379;SDS011;64279;44.714;37.756;2022-11-24T05:05:23;6.18;;;3.35;;
75379;SDS011;64279;44.714;37.756;2022-11-24T05:06:26;6.25;;;3.17;;
75379;SDS011;64279;44.714;37.756;2022-11-24T05:07:29;4.90;;;2.72;;
75379;SDS011;64279;44.714;37.756;2022-11-24T05:08:31;6.30;;;2.90;;
75379;SDS011;64279;44.714;37.756;2022-11-24T05:09:34;5.05;;;2.58;;
75379;SDS011;64279;44.714;37.756;2022-11-24T05:11:04;6.32;;;2.83;;
75379;SDS011;64279;44.714;37.756;2022-11-24T05:12:07;8.13;;;4.03;;
75379;SDS011;64279;44.714;37.756;2022-11-24T05:13:10;5.65;;;2.92;;
75379;SDS011;64279;44.714;37.756;2022-11-24T05:14:14;6.80;;;3.10;;
75379;SDS011;64279;44.714;37.756;2022-11-24T05:15:17;6.35;;;3.13;;
75379;SDS011;64279;44.714;37.756;2022-11-24T05:16:19;5.35;;;2.70;;
75379;SDS011;64279;44.714;37.756;2022-11-24T05:17:22;7.82;;;3.05;;
75379;SDS011;64279;44.714;37.756;2022-11-24T05:18:25;7.75;;;3.25;;
75379;SDS011;64279;44.714;37.756;2022-11-24T05:19:28;5.65;;;2.65;;
75379;SDS011;64279;44.714;37.756;2022-11-24T05:20:33;5.82;;;3.05;;
75379;SDS011;64279;44.714;37.756;2022-11-24T05:21:36;4.63;;;2.75;;
75379;SDS011;64279;44.714;37.756;2022-11-24T05:22:39;6.28;;;3.28;;
75379;SDS011;64279;44.714;37.756;2022-11-24T05:23:42;5.45;;;2.55;;
75379;SDS011;64279;44.714;37.756;2022-11-24T05:24:45;9.23;;;3.55;;
75379;SDS011;64279;44.714;37.756;2022-11-24T05:25:48;6.88;;;3.20;;
75379;SDS011;64279;44.714;37.756;2022-11-24T05:26:51;5.20;;;2.88;;
75379;SDS011;64279;44.714;37.756;2022-11-24T05:27:53;7.68;;;3.42;;
75379;SDS011;64279;44.714;37.756;2022-11-24T05:28:56;6.78;;;3.13;;
75379;SDS011;64279;44.714;37.756;2022-11-24T05:29:58;5.43;;;3.10;;
75379;SDS011;64279;44.714;37.756;2022-11-24T05:31:02;4.45;;;3.08;;
75379;SDS011;64279;44.714;37.756;2022-11-24T05:32:05;6.18;;;3.13;;
75379;SDS011;64279;44.714;37.756;2022-11-24T05:33:10;4.88;;;2.88;;
75379;SDS011;64279;44.714;37.756;2022-11-24T05:34:24;5.95;;;2.50;;
75379;SDS011;64279;44.714;37.756;2022-11-24T05:35:27;5.03;;;2.90;;
75379;SDS011;64279;44.714;37.756;2022-11-24T05:36:30;6.20;;;3.00;;
75379;SDS011;64279;44.714;37.756;2022-11-24T05:37:51;5.95;;;3.08;;
75379;SDS011;64279;44.714;37.756;2022-11-24T05:38:53;7.05;;;3.00;;
75379;SDS011;64279;44.714;37.756;2022-11-24T05:39:56;5.35;;;2.60;;
75379;SDS011;64279;44.714;37.756;2022-11-24T05:40:59;6.65;;;2.80;;
75379;SDS011;64279;44.714;37.756;2022-11-24T05:42:05;6.68;;;3.33;;
75379;SDS011;64279;44.714;37.756;2022-11-24T05:43:27;4.85;;;2.88;;
75379;SDS011;64279;44.714;37.756;2022-11-24T05:44:30;6.03;;;2.92;;
75379;SDS011;64279;44.714;37.756;2022-11-24T05:45:33;5.88;;;3.10;;
75379;SDS011;64279;44.714;37.756;2022-11-24T05:46:36;5.75;;;3.33;;
75379;SDS011;64279;44.714;37.756;2022-11-24T05:47:39;4.78;;;2.53;;
75379;SDS011;64279;44.714;37.756;2022-11-24T05:48:43;5.78;;;2.63;;
75379;SDS011;64279;44.714;37.756;2022-11-24T05:49:46;6.32;;;2.78;;
75379;SDS011;64279;44.714;37.756;2022-11-24T05:50:52;6.13;;;3.20;;
75379;SDS011;64279;44.714;37.756;2022-11-24T05:51:58;5.95;;;3.10;;
75379;SDS011;64279;44.714;37.756;2022-11-24T05:53:04;6.32;;;2.97;;
75379;SDS011;64279;44.714;37.756;2022-11-24T05:55:10;4.88;;;2.45;;
75379;SDS011;64279;44.714;37.756;2022-11-24T05:56:14;5.72;;;3.30;;
75379;SDS011;64279;44.714;37.756;2022-11-24T05:57:16;5.38;;;3.20;;
75379;SDS011;64279;44.714;37.756;2022-11-24T05:58:19;5.35;;;2.40;;
75379;SDS011;64279;44.714;37.756;2022-11-24T05:59:23;5.47;;;3.20;;
75379;SDS011;64279;44.714;37.756;2022-11-24T06:00:26;4.50;;;2.65;;
75379;SDS011;64279;44.714;37.756;2022-11-24T06:01:30;5.80;;;3.20;;
75379;SDS011;64279;44.714;37.756;2022-11-24T06:02:33;5.28;;;3.10;;
75379;SDS011;64279;44.714;37.756;2022-11-24T06:03:36;4.90;;;2.45;;
75379;SDS011;64279;44.714;37.756;2022-11-24T06:04:39;6.10;;;2.78;;
75379;SDS011;64279;44.714;37.756;2022-11-24T06:05:44;5.53;;;2.67;;
75379;SDS011;64279;44.714;37.756;2022-11-24T06:06:48;5.20;;;2.63;;
75379;SDS011;64279;44.714;37.756;2022-11-24T06:07:50;6.75;;;3.40;;
75379;SDS011;64279;44.714;37.756;2022-11-24T06:08:53;5.68;;;3.10;;
75379;SDS011;64279;44.714;37.756;2022-11-24T06:09:56;6.97;;;2.85;;
75379;SDS011;64279;44.714;37.756;2022-11-24T06:10:59;6.63;;;3.10;;
75379;SDS011;64279;44.714;37.756;2022-11-24T06:12:18;5.20;;;3.45;;
75379;SDS011;64279;44.714;37.756;2022-11-24T06:13:21;5.20;;;3.33;;
75379;SDS011;64279;44.714;37.756;2022-11-24T06:14:24;5.63;;;2.85;;
75379;SDS011;64279;44.714;37.756;2022-11-24T06:15:26;5.70;;;2.60;;
75379;SDS011;64279;44.714;37.756;2022-11-24T06:16:29;5.30;;;2.60;;
75379;SDS011;64279;44.714;37.756;2022-11-24T06:17:32;5.65;;;2.67;;
75379;SDS011;64279;44.714;37.756;2022-11-24T06:18:35;5.13;;;3.20;;
75379;SDS011;64279;44.714;37.756;2022-11-24T06:19:38;5.70;;;2.80;;
75379;SDS011;64279;44.714;37.756;2022-11-24T06:20:43;4.18;;;2.60;;
75379;SDS011;64279;44.714;37.756;2022-11-24T06:22:05;5.50;;;3.20;;
75379;SDS011;64279;44.714;37.756;2022-11-24T06:23:08;5.55;;;2.47;;
75379;SDS011;64279;44.714;37.756;2022-11-24T06:24:10;4.82;;;2.63;;
75379;SDS011;64279;44.714;37.756;2022-11-24T06:25:13;5.57;;;2.97;;
75379;SDS011;64279;44.714;37.756;2022-11-24T06:26:17;4.93;;;2.85;;
75379;SDS011;64279;44.714;37.756;2022-11-24T06:27:21;4.75;;;2.78;;
75379;SDS011;64279;44.714;37.756;2022-11-24T06:28:24;6.30;;;3.05;;